Time;durP1;ratioP1;P1;durP2;ratioP2;P2;SDS_P1;SDS_P2;PMS_P1;PMS_P2;Temp;Humidity;BMP_temperature;BMP_pressure;BME280_temperature;BME280_humidity;BME280_pressure;Samples;Min_cycle;Max_cycle;Signal;HPM_P1;HPM_P2
2022/09/04 00:00:23;;;;;;;10.18;8.68;;;;;;;18.94;76.58;100538.66;4098274;28;20061;-70
2022/09/04 00:02:44;;;;;;;10.18;8.80;;;;;;;18.97;76.21;100538.63;4112191;28;20050;-70
2022/09/04 00:04:57;;;;;;;9.75;8.15;;;;;;;18.93;76.24;100547.47;4098079;29;20046;-70
2022/09/04 00:07:09;;;;;;;11.60;8.85;;;;;;;18.93;76.29;100550.09;4099707;29;20043;-70
2022/09/04 00:09:20;;;;;;;12.32;9.38;;;;;;;18.94;76.10;100549.19;4096854;28;20031;-70
2022/09/04 00:11:43;;;;;;;11.63;7.95;;;;;;;18.94;75.46;100554.44;4098790;28;20411;-70
2022/09/04 00:13:52;;;;;;;9.60;8.60;;;;;;;18.92;75.54;100546.59;4097882;29;20047;-70
2022/09/04 00:16:04;;;;;;;10.15;8.02;;;;;;;18.91;75.67;100554.50;4097441;28;20049;-70
2022/09/04 00:18:12;;;;;;;9.35;7.70;;;;;;;18.90;75.60;100555.44;4098745;29;20093;-70
2022/09/04 00:20:40;;;;;;;10.55;8.15;;;;;;;18.86;75.55;100557.25;4097930;29;20527;-70
2022/09/04 00:22:52;;;;;;;8.50;7.32;;;;;;;18.84;75.75;100564.28;4099554;29;20049;-70
2022/09/04 00:25:04;;;;;;;8.77;6.53;;;;;;;18.82;75.89;100559.03;4121773;28;20483;-70
2022/09/04 00:27:12;;;;;;;8.98;7.80;;;;;;;18.86;75.34;100556.34;4104530;28;20520;-70
2022/09/04 00:29:22;;;;;;;9.52;7.75;;;;;;;18.84;75.47;100557.22;4098594;28;20039;-69
2022/09/04 00:31:32;;;;;;;8.65;6.68;;;;;;;18.86;75.43;100561.63;4129300;28;20436;-70
2022/09/04 00:33:43;;;;;;;12.85;9.00;;;;;;;18.80;75.28;100563.44;4097894;29;20559;-70
2022/09/04 00:35:49;;;;;;;9.43;7.55;;;;;;;18.76;75.64;100566.16;4099547;28;20111;-70
2022/09/04 00:37:59;;;;;;;11.52;7.13;;;;;;;18.75;75.66;100565.31;4098472;28;20500;-70
2022/09/04 00:40:07;;;;;;;9.82;7.63;;;;;;;18.72;75.80;100561.84;4099434;28;20042;-69
2022/09/04 00:42:28;;;;;;;9.95;7.68;;;;;;;18.73;75.70;100568.88;4099711;28;20049;-70
2022/09/04 00:44:58;;;;;;;8.88;7.60;;;;;;;18.72;75.78;100568.00;4098437;28;20490;-70
2022/09/04 00:47:40;;;;;;;9.02;7.05;;;;;;;18.66;75.59;100570.72;4093224;29;20047;-70
2022/09/04 00:50:00;;;;;;;9.98;7.85;;;;;;;18.64;75.68;100569.91;4093924;28;20146;-70
2022/09/04 00:52:16;;;;;;;9.75;7.60;;;;;;;18.65;75.49;100569.00;4099593;28;20058;-70
2022/09/04 00:54:47;;;;;;;10.75;8.80;;;;;;;18.61;75.53;100573.44;4093928;29;20057;-69
2022/09/04 00:57:12;;;;;;;9.35;7.90;;;;;;;18.60;75.29;100576.09;4089862;29;20055;-70
2022/09/04 00:59:22;;;;;;;;;;;;;;;18.43;75.98;100576.41;4098648;28;20094;-69
2022/09/04 01:01:27;;;;;;;8.38;6.40;;;;;;;18.50;76.46;100580.69;4098093;28;19926;-69
2022/09/04 01:03:45;;;;;;;10.65;8.38;;;;;;;18.57;75.86;100576.16;4090597;29;20035;-71
2022/09/04 01:06:15;;;;;;;7.88;7.07;;;;;;;18.56;76.28;100584.94;4102628;28;20047;-70
2022/09/04 01:08:28;;;;;;;10.82;8.00;;;;;;;18.57;76.20;100586.69;4101279;29;20408;-71
2022/09/04 01:10:40;;;;;;;7.13;6.00;;;;;;;18.55;75.96;100586.72;4102681;28;20474;-71
2022/09/04 01:12:49;;;;;;;11.07;7.30;;;;;;;18.51;76.54;100584.16;4101548;29;20565;-71
2022/09/04 01:15:13;;;;;;;12.07;7.65;;;;;;;18.50;76.16;100585.94;4101149;28;20039;-71
2022/09/04 01:17:26;;;;;;;9.25;7.78;;;;;;;18.49;76.28;100595.59;4100364;28;20050;-71
2022/09/04 01:19:40;;;;;;;9.20;7.63;;;;;;;18.48;76.21;100593.84;4100971;29;20560;-71
2022/09/04 01:22:00;;;;;;;10.90;7.05;;;;;;;18.51;75.90;100594.69;4102464;28;20047;-71
2022/09/04 01:24:22;;;;;;;8.85;7.70;;;;;;;18.51;75.37;100590.28;4102041;28;20039;-71
2022/09/04 01:26:34;;;;;;;9.55;7.47;;;;;;;18.51;75.83;100590.28;4102267;28;20126;-71
2022/09/04 01:28:52;;;;;;;11.48;8.65;;;;;;;18.49;75.60;100590.31;4101604;28;20043;-71
2022/09/04 01:31:04;;;;;;;9.43;8.20;;;;;;;18.47;75.57;100591.22;4084189;29;20048;-70
2022/09/04 01:33:15;;;;;;;10.18;8.00;;;;;;;18.46;75.57;100600.03;4101065;28;20131;-70
2022/09/04 01:35:29;;;;;;;8.73;7.45;;;;;;;18.45;75.80;100601.78;4097591;29;20109;-70
2022/09/04 01:37:43;;;;;;;11.75;8.35;;;;;;;18.45;75.43;100606.19;4102074;28;20043;-70
2022/09/04 01:39:51;;;;;;;10.93;8.23;;;;;;;18.43;75.50;100608.00;4107373;28;20043;-70
2022/09/04 01:42:01;;;;;;;8.52;7.05;;;;;;;18.41;75.28;100609.75;4102988;28;20052;-70
2022/09/04 01:44:07;;;;;;;10.63;7.97;;;;;;;18.41;75.93;100609.75;4124818;28;20038;-70
2022/09/04 01:46:25;;;;;;;10.98;8.43;;;;;;;18.41;75.21;100607.13;4099865;28;20417;-70
2022/09/04 01:48:38;;;;;;;9.43;6.60;;;;;;;18.38;75.53;100609.81;4129041;28;20038;-70
2022/09/04 01:50:45;;;;;;;11.25;8.10;;;;;;;18.36;75.56;100608.97;4099937;29;20046;-71
2022/09/04 01:52:57;;;;;;;9.75;7.95;;;;;;;18.36;75.77;100609.84;4100017;28;20047;-71
2022/09/04 01:55:10;;;;;;;8.00;6.90;;;;;;;18.34;75.97;100608.13;4094454;29;20043;-71
2022/09/04 01:57:31;;;;;;;11.55;8.15;;;;;;;18.32;75.47;100608.16;4100527;29;20539;-71
2022/09/04 01:59:48;;;;;;;8.85;7.78;;;;;;;18.32;75.92;100608.16;4098862;28;20047;-71
2022/09/04 02:02:04;;;;;;;10.65;8.45;;;;;;;18.31;75.51;100607.28;4100036;28;20047;-71
2022/09/04 02:04:20;;;;;;;10.88;8.30;;;;;;;18.31;75.79;100611.66;4097549;28;20411;-71
2022/09/04 02:06:32;;;;;;;10.98;7.25;;;;;;;18.30;75.68;100608.19;4098731;29;20087;-70
2022/09/04 02:08:50;;;;;;;10.30;7.22;;;;;;;18.30;75.97;100615.22;4099993;29;20047;-71
2022/09/04 02:11:02;;;;;;;9.95;7.45;;;;;;;18.28;75.61;100614.34;4130683;28;20133;-70
2022/09/04 02:13:16;;;;;;;9.30;7.40;;;;;;;18.28;75.46;100616.97;4099456;28;20047;-70
2022/09/04 02:15:32;;;;;;;10.13;7.97;;;;;;;18.25;76.04;100617.91;4100021;29;20499;-70
2022/09/04 02:17:43;;;;;;;8.70;7.07;;;;;;;18.27;75.67;100620.53;4098979;29;20044;-70
2022/09/04 02:20:03;;;;;;;8.45;7.47;;;;;;;18.29;75.92;100616.09;4099667;28;20046;-70
2022/09/04 02:22:16;;;;;;;11.98;8.13;;;;;;;18.27;75.34;100616.13;4100374;28;20489;-71
2022/09/04 02:24:26;;;;;;;9.73;8.10;;;;;;;18.25;75.43;100610.03;4098816;29;20045;-71
2022/09/04 02:26:33;;;;;;;9.45;8.40;;;;;;;18.21;75.05;100610.97;4099389;28;20035;-71
2022/09/04 02:28:47;;;;;;;10.40;8.50;;;;;;;18.18;75.51;100611.00;4098827;28;20070;-70
2022/09/04 02:30:56;;;;;;;10.10;8.97;;;;;;;18.13;75.42;100608.41;4092431;29;20043;-70
2022/09/04 02:33:06;;;;;;;12.20;8.80;;;;;;;18.11;75.56;100607.59;4100102;28;20047;-71
2022/09/04 02:35:16;;;;;;;9.93;8.93;;;;;;;18.08;75.18;100610.25;4099454;28;20516;-71
2022/09/04 02:37:26;;;;;;;10.43;7.88;;;;;;;18.09;75.65;100611.13;4099426;29;20067;-70
2022/09/04 02:39:45;;;;;;;10.95;8.48;;;;;;;18.07;75.75;100613.78;4131022;28;20458;-70
2022/09/04 02:41:59;;;;;;;10.30;8.35;;;;;;;18.08;75.53;100620.78;4100036;28;20055;-70
2022/09/04 02:44:18;;;;;;;9.57;7.43;;;;;;;18.10;75.61;100619.00;4093833;29;20043;-70
2022/09/04 02:46:27;;;;;;;10.23;8.45;;;;;;;18.06;76.03;100621.69;4099898;29;20114;-70
2022/09/04 02:48:39;;;;;;;9.98;7.28;;;;;;;18.05;75.81;100615.56;4115384;28;20151;-70
2022/09/04 02:50:56;;;;;;;10.05;7.25;;;;;;;18.06;76.02;100622.56;4099793;29;20123;-71
2022/09/04 02:53:10;;;;;;;8.73;7.43;;;;;;;18.08;76.15;100626.03;4099862;28;20043;-70
2022/09/04 02:55:27;;;;;;;10.35;8.55;;;;;;;18.08;76.01;100631.31;4100196;28;20035;-70
2022/09/04 02:57:38;;;;;;;;;;;;;;;17.92;76.08;100629.78;4099404;28;20501;-71
2022/09/04 02:59:55;;;;;;;10.18;7.80;;;;;;;17.96;76.21;100632.34;4099844;28;20040;-71
2022/09/04 03:02:01;;;;;;;10.25;9.15;;;;;;;18.01;75.97;100628.78;4093236;29;20051;-70
2022/09/04 03:04:13;;;;;;;11.43;8.75;;;;;;;18.05;75.92;100635.75;4090816;29;20043;-70
2022/09/04 03:06:24;;;;;;;12.23;9.15;;;;;;;18.04;75.67;100634.88;4099047;28;20094;-70
2022/09/04 03:08:34;;;;;;;10.95;9.45;;;;;;;18.03;75.87;100641.00;4099941;28;20053;-70
2022/09/04 03:10:44;;;;;;;11.52;8.85;;;;;;;18.02;76.06;100641.91;4099773;28;20397;-69
2022/09/04 03:12:51;;;;;;;10.25;8.32;;;;;;;18.03;76.02;100638.38;4099335;29;20043;-70
2022/09/04 03:15:02;;;;;;;9.98;8.88;;;;;;;18.02;75.99;100648.94;4098405;28;20539;-69
2022/09/04 03:17:12;;;;;;;9.75;8.13;;;;;;;17.97;75.77;100643.72;4111046;28;20038;-69
2022/09/04 03:19:20;;;;;;;11.00;8.18;;;;;;;17.95;76.19;100645.53;4099396;28;20543;-70
2022/09/04 03:21:29;;;;;;;12.63;9.52;;;;;;;17.95;76.12;100645.53;4099832;29;20062;-70
2022/09/04 03:23:39;;;;;;;9.98;8.52;;;;;;;17.93;76.01;100648.19;4097951;29;20039;-70
2022/09/04 03:26:03;;;;;;;11.23;8.63;;;;;;;17.97;75.94;100643.72;4096606;28;20042;-70
2022/09/04 03:28:12;;;;;;;14.45;9.02;;;;;;;17.96;75.71;100652.53;4083222;29;20051;-70
2022/09/04 03:30:18;;;;;;;11.65;8.48;;;;;;;17.97;76.07;100646.34;4099229;28;20032;-70
2022/09/04 03:32:26;;;;;;;11.00;8.35;;;;;;;18.00;75.75;100646.31;4100360;29;20462;-70
2022/09/04 03:34:43;;;;;;;13.00;9.02;;;;;;;17.99;75.68;100652.50;4097843;28;20043;-70
2022/09/04 03:37:00;;;;;;;12.25;8.85;;;;;;;17.96;75.55;100657.78;4130037;28;20046;-71
2022/09/04 03:39:10;;;;;;;9.82;7.68;;;;;;;17.97;75.75;100662.16;4092969;28;20054;-71
2022/09/04 03:41:28;;;;;;;10.35;8.85;;;;;;;17.98;75.59;100657.78;4099044;29;20090;-70
2022/09/04 03:43:46;;;;;;;9.25;8.00;;;;;;;17.94;75.69;100662.19;4098192;28;20045;-70
2022/09/04 03:45:58;;;;;;;10.07;8.38;;;;;;;17.94;75.34;100655.16;4098254;28;20137;-70
2022/09/04 03:48:19;;;;;;;12.63;9.65;;;;;;;17.91;75.91;100654.34;4097342;29;20039;-71
2022/09/04 03:50:28;;;;;;;10.98;9.88;;;;;;;17.86;75.55;100662.25;4098993;29;20375;-70
2022/09/04 03:52:39;;;;;;;12.35;9.80;;;;;;;17.87;75.75;100665.75;4097357;29;20051;-71
2022/09/04 03:55:00;;;;;;;11.15;9.13;;;;;;;17.88;75.85;100664.88;4096770;28;20541;-71
2022/09/04 03:57:18;;;;;;;9.68;8.52;;;;;;;17.87;75.54;100664.00;4093898;29;20517;-71
2022/09/04 03:59:41;;;;;;;8.93;8.02;;;;;;;17.85;75.77;100665.78;4098896;29;20505;-71
2022/09/04 04:01:57;;;;;;;9.95;8.23;;;;;;;17.86;75.36;100666.63;4098729;28;20043;-71
2022/09/04 04:04:34;;;;;;;9.77;7.88;;;;;;;17.85;75.85;100662.28;4096609;28;20045;-70
2022/09/04 04:06:46;;;;;;;11.00;9.23;;;;;;;17.77;76.06;100673.75;4096847;28;20039;-71
2022/09/04 04:09:24;;;;;;;11.38;9.18;;;;;;;17.80;75.84;100668.47;4090781;29;20039;-70
2022/09/04 04:11:41;;;;;;;10.75;7.95;;;;;;;17.79;75.74;100671.97;4099711;28;20035;-71
2022/09/04 04:14:16;;;;;;;10.52;8.65;;;;;;;17.77;75.86;100679.03;4098552;28;20043;-70
2022/09/04 04:16:30;;;;;;;9.88;8.35;;;;;;;17.76;75.79;100677.28;4069664;29;20126;-70
2022/09/04 04:19:09;;;;;;;9.80;8.65;;;;;;;17.78;75.52;100679.88;4099010;29;20043;-70
2022/09/04 04:21:23;;;;;;;11.73;9.75;;;;;;;17.75;75.92;100675.53;4095701;28;20043;-70
2022/09/04 04:24:02;;;;;;;12.45;9.88;;;;;;;17.75;75.91;100682.56;4098290;29;20039;-70
2022/09/04 04:26:11;;;;;;;12.60;8.35;;;;;;;17.73;75.88;100685.19;4094302;28;20455;-70
2022/09/04 04:28:30;;;;;;;10.98;9.25;;;;;;;17.73;75.94;100687.84;4110926;28;20512;-70
2022/09/04 04:30:43;;;;;;;10.85;9.23;;;;;;;17.71;75.86;100696.63;4110509;28;20054;-70
2022/09/04 04:33:01;;;;;;;9.75;7.88;;;;;;;17.70;75.78;100693.13;4099286;29;20515;-70
2022/09/04 04:35:21;;;;;;;11.95;8.20;;;;;;;17.69;76.11;100695.78;4081856;29;20501;-70
2022/09/04 04:37:37;;;;;;;12.27;9.10;;;;;;;17.70;75.92;100698.38;4099134;28;20047;-70
2022/09/04 04:39:50;;;;;;;11.95;9.00;;;;;;;17.68;76.24;100699.28;4098766;28;20039;-70
2022/09/04 04:42:07;;;;;;;10.43;7.63;;;;;;;17.71;75.72;100699.25;4097694;28;20039;-70
2022/09/04 04:44:15;;;;;;;9.25;7.35;;;;;;;17.68;75.88;100702.78;4096352;28;20043;-70
2022/09/04 04:46:31;;;;;;;10.43;8.45;;;;;;;17.63;76.31;100712.50;4096542;28;20046;-70
2022/09/04 04:49:10;;;;;;;9.50;7.65;;;;;;;17.60;76.13;100707.28;4098400;28;20098;-70
2022/09/04 04:51:30;;;;;;;9.63;8.43;;;;;;;17.60;76.53;100712.53;4083666;29;20198;-70
2022/09/04 04:53:39;;;;;;;11.13;8.48;;;;;;;17.62;76.27;100716.88;4097111;29;20054;-70
2022/09/04 04:55:48;;;;;;;9.45;8.00;;;;;;;17.61;76.29;100716.91;4129166;28;20042;-70
2022/09/04 04:58:35;;;;;;;13.43;8.18;;;;;;;17.61;75.95;100720.41;4090769;29;20039;-70
2022/09/04 05:00:43;;;;;;;9.77;7.95;;;;;;;17.58;76.02;100730.06;4093790;29;20054;-70
2022/09/04 05:03:00;;;;;;;9.68;7.40;;;;;;;17.62;76.32;100731.78;4098210;28;20083;-70
2022/09/04 05:05:12;;;;;;;11.57;8.60;;;;;;;17.62;75.92;100737.94;4090564;28;20046;-70
2022/09/04 05:07:33;;;;;;;10.35;8.40;;;;;;;17.62;75.97;100735.28;4098260;28;20139;-70
2022/09/04 05:09:44;;;;;;;9.80;8.38;;;;;;;17.61;76.02;100738.81;4098379;29;20043;-70
2022/09/04 05:11:55;;;;;;;8.73;7.65;;;;;;;17.61;76.08;100745.81;4096947;28;20046;-70
2022/09/04 05:14:09;;;;;;;11.43;7.88;;;;;;;17.61;76.21;100748.47;4074463;29;20051;-70
2022/09/04 05:16:18;;;;;;;10.75;8.18;;;;;;;17.65;76.38;100751.91;4098235;28;20066;-70
2022/09/04 05:18:28;;;;;;;7.72;6.07;;;;;;;17.67;76.13;100750.13;4098308;28;20039;-70
2022/09/04 05:20:41;;;;;;;9.52;6.75;;;;;;;17.64;76.00;100753.69;4097372;29;20134;-70
2022/09/04 05:22:49;;;;;;;9.77;8.30;;;;;;;17.69;76.40;100756.25;4096580;29;20040;-70
2022/09/04 05:25:02;;;;;;;11.05;7.22;;;;;;;17.69;76.06;100758.88;4090305;29;20047;-71
2022/09/04 05:27:12;;;;;;;9.25;7.80;;;;;;;17.69;76.22;100758.88;4096004;28;20047;-70
2022/09/04 05:29:22;;;;;;;9.50;8.50;;;;;;;17.71;76.22;100765.00;4097993;29;20035;-70
2022/09/04 05:31:37;;;;;;;11.57;7.68;;;;;;;17.72;76.01;100764.97;4096978;28;20058;-70
2022/09/04 05:33:48;;;;;;;8.63;6.90;;;;;;;17.74;76.15;100767.59;4094995;28;20032;-70
2022/09/04 05:35:58;;;;;;;12.65;8.55;;;;;;;17.78;76.00;100764.94;4097878;29;20405;-70
2022/09/04 05:38:09;;;;;;;10.00;8.80;;;;;;;17.82;76.08;100778.03;4098070;28;20039;-70
2022/09/04 05:40:19;;;;;;;12.00;7.88;;;;;;;17.83;76.05;100785.03;4096903;28;20047;-70
2022/09/04 05:42:41;;;;;;;9.88;8.07;;;;;;;17.85;76.08;100791.16;4126202;28;20411;-70
2022/09/04 05:44:57;;;;;;;13.77;9.15;;;;;;;17.80;76.35;100786.81;4080065;29;20080;-70
2022/09/04 05:47:08;;;;;;;10.80;8.82;;;;;;;17.85;76.39;100788.53;4110391;28;20042;-71
2022/09/04 05:49:20;;;;;;;12.23;9.95;;;;;;;17.90;76.43;100784.09;4099251;28;20043;-71
2022/09/04 05:51:49;;;;;;;9.85;8.85;;;;;;;17.87;76.28;100795.53;4098623;28;20486;-70
2022/09/04 05:54:10;;;;;;;10.55;8.50;;;;;;;17.87;76.31;100798.16;4099197;29;20468;-70
2022/09/04 05:56:42;;;;;;;10.93;9.32;;;;;;;17.91;76.30;100804.25;4096082;29;20076;-70
2022/09/04 05:59:05;;;;;;;9.60;8.38;;;;;;;17.98;76.19;100797.19;4099973;28;20039;-70
2022/09/04 06:01:21;;;;;;;13.55;10.52;;;;;;;18.02;75.91;100805.03;4095175;29;20533;-70
2022/09/04 06:03:52;;;;;;;12.45;10.35;;;;;;;18.08;75.88;100804.94;4098394;28;20075;-70
2022/09/04 06:06:15;;;;;;;11.23;9.65;;;;;;;18.07;75.93;100797.94;4093402;28;20090;-70
2022/09/04 06:08:32;;;;;;;12.45;9.77;;;;;;;18.17;75.54;100803.97;4100405;29;20102;-70
2022/09/04 06:10:51;;;;;;;12.65;9.88;;;;;;;18.12;76.52;100811.03;4101574;28;20031;-70
2022/09/04 06:13:18;;;;;;;10.82;9.00;;;;;;;18.08;76.36;100818.13;4092827;29;20485;-70
2022/09/04 06:15:36;;;;;;;10.52;8.15;;;;;;;18.04;76.98;100829.56;4099704;28;20073;-71
2022/09/04 06:18:00;;;;;;;10.55;9.43;;;;;;;18.01;76.75;100820.84;4100617;28;20047;-71
2022/09/04 06:20:18;;;;;;;10.45;8.75;;;;;;;17.99;76.89;100823.47;4114499;28;20139;-71
2022/09/04 06:22:49;;;;;;;12.30;9.50;;;;;;;18.00;76.88;100827.84;4115403;28;20512;-71
2022/09/04 06:25:38;;;;;;;12.02;8.52;;;;;;;18.02;77.11;100828.72;4093237;29;20043;-71
2022/09/04 06:28:03;;;;;;;10.63;8.95;;;;;;;18.03;76.97;100827.78;4095921;28;20051;-71
2022/09/04 06:30:09;;;;;;;15.18;11.32;;;;;;;18.11;77.23;100835.63;4098575;29;20039;-71
2022/09/04 06:32:31;;;;;;;13.70;11.38;;;;;;;18.11;76.33;100831.22;4098959;28;20563;-71
2022/09/04 06:34:59;;;;;;;14.45;12.35;;;;;;;18.22;76.21;100832.88;4098192;28;20493;-71
2022/09/04 06:37:18;;;;;;;16.02;13.50;;;;;;;18.36;76.26;100835.34;4099251;29;20039;-71
2022/09/04 06:39:37;;;;;;;15.57;13.10;;;;;;;18.33;76.07;100843.28;4096672;29;20042;-71
2022/09/04 06:41:55;;;;;;;17.70;12.38;;;;;;;18.34;76.17;100845.00;4083094;29;20048;-71
2022/09/04 06:44:07;;;;;;;13.88;11.88;;;;;;;18.37;76.23;100845.84;4093022;28;20501;-71
2022/09/04 06:46:22;;;;;;;13.75;12.10;;;;;;;18.35;76.50;100845.00;4102217;28;20047;-71
2022/09/04 06:48:35;;;;;;;13.85;12.45;;;;;;;18.26;76.68;100850.38;4098192;28;20409;-71
2022/09/04 06:50:51;;;;;;;15.15;12.65;;;;;;;18.25;76.55;100851.25;4098611;28;20124;-70
2022/09/04 06:53:05;;;;;;;15.63;12.48;;;;;;;18.22;76.87;100860.03;4093828;28;20043;-70
2022/09/04 06:55:20;;;;;;;16.40;14.52;;;;;;;18.16;77.19;100864.53;4099130;28;20047;-70
2022/09/04 06:57:47;;;;;;;14.23;12.73;;;;;;;18.17;77.33;100861.00;4098907;29;20413;-70
2022/09/04 07:00:02;;;;;;;15.40;12.55;;;;;;;18.13;77.33;100861.00;4096984;28;20054;-70
2022/09/04 07:02:20;;;;;;;14.27;10.32;;;;;;;18.21;77.42;100863.59;4098662;28;20054;-69
2022/09/04 07:04:44;;;;;;;15.52;12.00;;;;;;;18.24;77.50;100870.59;4094798;28;20074;-71
2022/09/04 07:06:58;;;;;;;13.55;11.63;;;;;;;18.25;77.55;100869.66;4103345;28;20043;-71
2022/09/04 07:09:11;;;;;;;14.65;11.32;;;;;;;18.30;77.37;100868.72;4100796;28;20045;-70
2022/09/04 07:11:23;;;;;;;13.75;11.75;;;;;;;18.34;77.62;100869.59;4114114;28;20127;-70
2022/09/04 07:13:59;;;;;;;15.10;12.25;;;;;;;18.45;77.28;100872.09;4127610;28;20126;-70
2022/09/04 07:16:30;;;;;;;14.88;12.05;;;;;;;18.34;77.75;100872.22;4100581;28;20501;-70
2022/09/04 07:19:07;;;;;;;12.15;10.48;;;;;;;18.39;77.75;100872.16;4100497;28;20535;-70
2022/09/04 07:21:16;;;;;;;15.57;12.05;;;;;;;18.42;77.57;100865.09;4131290;28;20141;-70
2022/09/04 07:23:31;;;;;;;16.42;12.63;;;;;;;18.56;77.24;100877.22;4095830;28;20501;-70
2022/09/04 07:25:44;;;;;;;13.68;12.07;;;;;;;18.72;76.84;100875.25;4097949;28;20043;-71
2022/09/04 07:28:17;;;;;;;15.20;13.65;;;;;;;18.70;76.36;100875.28;4099066;29;20436;-71
2022/09/04 07:30:21;;;;;;;16.45;14.07;;;;;;;18.80;76.34;100879.53;4091961;28;20062;-68
2022/09/04 07:32:34;;;;;;;17.98;15.25;;;;;;;18.93;76.17;100882.91;4098164;28;20049;-65
2022/09/04 07:34:46;;;;;;;14.25;11.60;;;;;;;18.88;76.07;100891.78;4099796;28;20500;-67
2022/09/04 07:36:56;;;;;;;15.13;12.63;;;;;;;19.01;76.20;100898.63;4107667;28;20043;-65
2022/09/04 07:39:07;;;;;;;12.65;11.25;;;;;;;18.95;76.08;100890.81;4100138;28;20044;-64
2022/09/04 07:41:16;;;;;;;12.60;11.10;;;;;;;18.89;77.09;100899.66;4084486;29;20052;-67
2022/09/04 07:43:24;;;;;;;14.73;12.13;;;;;;;18.93;76.54;100901.34;4111087;28;20480;-64
2022/09/04 07:45:31;;;;;;;13.07;11.18;;;;;;;18.87;76.44;100905.84;4097335;28;20153;-64
2022/09/04 07:47:41;;;;;;;15.07;12.60;;;;;;;18.90;76.14;100905.81;4099516;29;20130;-64
2022/09/04 07:49:55;;;;;;;14.23;12.38;;;;;;;18.90;75.90;100905.81;4104508;28;20055;-63
2022/09/04 07:52:06;;;;;;;14.50;12.25;;;;;;;18.82;76.81;100905.84;4097014;29;20053;-62
2022/09/04 07:54:36;;;;;;;17.63;14.00;;;;;;;18.98;75.20;100912.72;4117293;28;20043;-68
2022/09/04 07:56:58;;;;;;;16.98;14.40;;;;;;;18.87;76.14;100916.41;4098005;28;20142;-68
2022/09/04 07:59:36;;;;;;;13.73;11.88;;;;;;;18.79;75.95;100912.06;4086740;29;20052;-69
2022/09/04 08:01:54;;;;;;;13.98;11.55;;;;;;;18.89;76.03;100909.31;4096350;29;20049;-66
2022/09/04 08:04:20;;;;;;;18.58;13.93;;;;;;;19.04;75.74;100919.69;4104372;28;20045;-65
2022/09/04 08:06:30;;;;;;;13.93;10.90;;;;;;;19.11;75.72;100918.69;4099608;28;20078;-65
2022/09/04 08:09:11;;;;;;;16.02;12.52;;;;;;;19.23;75.13;100924.66;4097145;29;20185;-65
2022/09/04 08:11:37;;;;;;;16.13;14.50;;;;;;;19.23;74.67;100924.66;4097043;28;20043;-65
2022/09/04 08:14:05;;;;;;;15.00;10.65;;;;;;;19.29;74.66;100928.09;4096876;28;20039;-65
2022/09/04 08:16:11;;;;;;;15.25;13.40;;;;;;;19.13;75.02;100932.72;4125703;28;20049;-65
2022/09/04 08:18:36;;;;;;;16.80;13.65;;;;;;;19.13;75.17;100938.00;4101380;28;20046;-65
2022/09/04 08:20:47;;;;;;;14.48;12.93;;;;;;;19.09;75.04;100938.91;4096949;28;20051;-65
2022/09/04 08:22:58;;;;;;;15.02;11.57;;;;;;;18.95;75.47;100941.75;4095014;28;20039;-65
2022/09/04 08:25:16;;;;;;;13.98;11.25;;;;;;;19.02;75.57;100947.78;4097059;29;20564;-65
2022/09/04 08:27:37;;;;;;;15.50;12.93;;;;;;;19.08;75.88;100952.13;4095739;28;20134;-65
2022/09/04 08:29:57;;;;;;;17.52;14.60;;;;;;;18.96;76.13;100950.53;4105564;28;20065;-65
2022/09/04 08:32:18;;;;;;;15.07;12.57;;;;;;;19.07;75.83;100956.53;4126796;28;20527;-65
2022/09/04 08:34:41;;;;;;;17.02;13.27;;;;;;;19.17;75.68;100963.41;4095954;28;20122;-67
2022/09/04 08:36:51;;;;;;;17.40;12.68;;;;;;;19.18;75.21;100953.75;4128041;28;20054;-65
2022/09/04 08:39:07;;;;;;;19.80;14.82;;;;;;;19.33;75.45;100957.91;4101667;28;20051;-64
2022/09/04 08:41:56;;;;;;;15.63;12.27;;;;;;;19.23;75.61;100957.19;4103387;28;20043;-66
2022/09/04 08:44:43;;;;;;;16.63;14.75;;;;;;;19.30;75.39;100963.25;4099063;28;20058;-64
2022/09/04 08:47:16;;;;;;;16.10;12.73;;;;;;;19.50;75.18;100971.72;4101957;28;20457;-64
2022/09/04 08:49:53;;;;;;;15.60;12.57;;;;;;;19.61;75.21;100968.06;4097648;28;20130;-65
2022/09/04 08:52:26;;;;;;;16.40;13.27;;;;;;;19.63;74.74;100972.44;4109330;28;20039;-65
2022/09/04 08:55:08;;;;;;;16.17;13.43;;;;;;;19.84;74.31;100981.81;4098277;28;20035;-65
2022/09/04 08:57:53;;;;;;;17.40;15.23;;;;;;;19.95;73.78;100978.16;4091661;28;20063;-65
2022/09/04 09:00:08;;;;;;;21.65;15.00;;;;;;;20.04;73.52;100989.41;4093128;28;20059;-66
2022/09/04 09:03:14;;;;;;;17.92;16.02;;;;;;;19.91;73.14;100977.31;4093758;28;20039;-67
2022/09/04 09:05:37;;;;;;;;;;;;;;;19.98;73.35;100964.91;4089811;28;20055;-67
2022/09/04 09:08:04;;;;;;;22.75;20.35;;;;;;;20.33;72.06;100980.09;4092178;28;19930;-70
2022/09/04 09:10:41;;;;;;;18.17;14.93;;;;;;;20.19;72.71;100976.84;4093551;28;20051;-72
2022/09/04 09:13:23;;;;;;;16.15;13.90;;;;;;;20.22;73.21;100972.41;4097982;28;20074;-70
2022/09/04 09:16:02;;;;;;;16.85;14.25;;;;;;;20.23;73.48;100974.13;4097715;28;20039;-70
2022/09/04 09:18:19;;;;;;;18.02;14.70;;;;;;;20.29;72.83;100978.41;4099040;28;20062;-69
2022/09/04 09:20:28;;;;;;;14.30;12.38;;;;;;;20.49;72.29;100975.41;4098238;29;20051;-70
2022/09/04 09:22:46;;;;;;;21.75;14.57;;;;;;;20.57;72.04;100970.88;4096842;28;20036;-67
2022/09/04 09:25:20;;;;;;;17.15;14.00;;;;;;;20.71;71.39;100967.97;4092773;29;20036;-67
2022/09/04 09:28:10;;;;;;;18.40;14.23;;;;;;;20.80;70.83;100966.94;4100274;28;20039;-69
2022/09/04 09:30:17;;;;;;;15.20;12.95;;;;;;;20.83;71.09;100968.66;4049447;28;20479;-69
2022/09/04 09:32:57;;;;;;;14.02;12.52;;;;;;;20.83;70.80;100973.94;4099251;29;20518;-69
2022/09/04 09:35:35;;;;;;;13.48;11.63;;;;;;;20.92;70.91;100968.44;4063813;28;20061;-68
2022/09/04 09:38:07;;;;;;;15.25;13.25;;;;;;;21.02;70.71;100969.13;4102212;28;20493;-68
2022/09/04 09:40:40;;;;;;;12.77;11.48;;;;;;;21.04;70.42;100967.31;4102182;29;20039;-69
2022/09/04 09:43:08;;;;;;;17.50;14.65;;;;;;;21.04;70.08;100969.97;4101507;28;20039;-68
2022/09/04 09:45:27;;;;;;;17.63;13.35;;;;;;;21.15;70.06;100970.59;4123872;28;20042;-66
2022/09/04 09:48:08;;;;;;;16.25;12.45;;;;;;;21.28;69.76;100956.22;4102478;28;20058;-68
2022/09/04 09:50:48;;;;;;;14.98;12.68;;;;;;;21.48;69.53;100956.66;4102032;28;20094;-68
2022/09/04 09:53:31;;;;;;;12.00;9.25;;;;;;;21.59;68.67;100952.88;4097045;28;20098;-68
2022/09/04 09:56:10;;;;;;;15.43;13.40;;;;;;;21.91;67.20;100953.88;4099746;29;20062;-68
2022/09/04 09:58:47;;;;;;;14.90;10.30;;;;;;;21.85;67.53;100945.25;4085863;29;20130;-68
2022/09/04 10:01:07;;;;;;;11.90;9.07;;;;;;;21.76;67.77;100947.19;4099159;29;20039;-67
2022/09/04 10:03:39;;;;;;;14.15;8.98;;;;;;;21.84;67.36;100948.78;4099234;28;20436;-68
2022/09/04 10:06:20;;;;;;;9.50;7.53;;;;;;;22.01;66.74;100946.59;4110740;28;20126;-67
2022/09/04 10:09:01;;;;;;;7.72;6.47;;;;;;;22.18;66.65;100943.50;4096055;29;20051;-68
2022/09/04 10:11:43;;;;;;;11.13;7.45;;;;;;;22.26;65.87;100936.22;4092146;28;20516;-67
2022/09/04 10:14:02;;;;;;;9.82;7.05;;;;;;;22.41;65.77;100940.25;4100457;29;20062;-68
2022/09/04 10:16:41;;;;;;;8.57;6.30;;;;;;;22.58;65.65;100941.59;4096411;28;20111;-67
2022/09/04 10:19:22;;;;;;;9.88;6.75;;;;;;;22.71;64.29;100934.16;4100851;29;20058;-67
2022/09/04 10:21:55;;;;;;;8.55;7.05;;;;;;;22.86;62.62;100935.50;4095331;28;20074;-67
2022/09/04 10:24:31;;;;;;;7.03;5.38;;;;;;;22.87;63.38;100929.25;4099779;28;20044;-67
2022/09/04 10:27:03;;;;;;;7.43;5.75;;;;;;;22.93;62.92;100932.59;4096465;28;20059;-67
2022/09/04 10:29:33;;;;;;;6.95;5.25;;;;;;;23.10;61.87;100933.88;4101193;29;20133;-67
2022/09/04 10:31:50;;;;;;;7.38;5.95;;;;;;;23.18;61.29;100926.59;4098116;29;20147;-67
2022/09/04 10:34:29;;;;;;;7.60;5.60;;;;;;;23.16;61.27;100934.59;4096000;29;20459;-67
2022/09/04 10:36:42;;;;;;;6.05;4.82;;;;;;;23.23;62.27;100934.41;4098829;28;20497;-67
2022/09/04 10:41:51;;;;;;;5.95;4.00;;;;;;;23.35;60.62;100929.59;4097658;29;20049;-67